createdAt,value
2023-05-22T00:00:21.857Z,2.83
2023-05-22T00:03:10.757Z,2.45
2023-05-22T00:05:41.281Z,2.83
2023-05-22T00:08:11.750Z,2.40
2023-05-22T00:10:40.395Z,2.35
2023-05-22T00:13:10.051Z,2.55
2023-05-22T00:15:38.500Z,2.67
2023-05-22T00:18:08.314Z,2.60
2023-05-22T00:20:38.895Z,3.08
2023-05-22T00:23:10.400Z,2.38
2023-05-22T00:25:39.447Z,2.90
2023-05-22T00:28:09.154Z,2.50
2023-05-22T00:30:39.099Z,2.70
2023-05-22T00:33:07.411Z,2.80
2023-05-22T00:35:35.869Z,3.00
2023-05-22T00:38:05.446Z,2.47
2023-05-22T00:40:34.031Z,2.88
2023-05-22T00:43:08.494Z,2.63
2023-05-22T00:45:38.797Z,2.83
2023-05-22T00:48:09.656Z,2.60
2023-05-22T00:50:38.515Z,2.58
2023-05-22T00:53:06.929Z,2.40
2023-05-22T00:55:35.382Z,2.88
2023-05-22T00:58:07.905Z,2.60
2023-05-22T01:00:38.654Z,2.67
2023-05-22T01:03:08.100Z,2.83
2023-05-22T01:05:37.294Z,3.10
2023-05-22T01:08:06.262Z,2.75
2023-05-22T01:10:35.520Z,2.70
2023-05-22T01:13:10.598Z,2.80
2023-05-22T01:15:45.470Z,2.70
2023-05-22T01:18:21.639Z,2.85
2023-05-22T01:20:58.280Z,2.90
2023-05-22T01:23:57.788Z,2.55
2023-05-22T01:26:57.204Z,2.60
2023-05-22T01:29:38.325Z,2.92
2023-05-22T01:32:10.957Z,3.47
2023-05-22T01:34:41.598Z,3.00
2023-05-22T01:37:11.361Z,2.55
2023-05-22T01:42:08.470Z,2.88
2023-05-22T01:44:36.773Z,2.83
2023-05-22T01:47:06.232Z,3.00
2023-05-22T01:49:37.129Z,2.60
2023-05-22T01:52:12.272Z,2.60
2023-05-22T01:54:47.301Z,3.08
2023-05-22T01:57:21.978Z,2.72
2023-05-22T01:59:55.550Z,3.30
2023-05-22T02:02:25.943Z,2.50
2023-05-22T02:05:00.786Z,3.50
2023-05-22T02:07:30.264Z,2.88
2023-05-22T02:09:59.717Z,2.30
2023-05-22T02:12:28.564Z,3.20
2023-05-22T02:14:56.810Z,3.10
2023-05-22T02:17:26.118Z,3.25
2023-05-22T02:19:55.670Z,2.90
2023-05-22T02:22:24.069Z,3.35
2023-05-22T02:24:52.232Z,2.80
2023-05-22T02:27:20.887Z,3.08
2023-05-22T02:29:49.005Z,3.60
2023-05-22T02:32:17.751Z,3.03
2023-05-22T02:34:45.926Z,2.40
2023-05-22T02:37:16.093Z,3.00
2023-05-22T02:39:44.253Z,3.25
2023-05-22T02:42:12.656Z,3.17
2023-05-22T02:44:40.767Z,3.13
2023-05-22T02:47:09.243Z,2.80
2023-05-22T02:49:37.380Z,3.15
2023-05-22T02:52:06.375Z,3.15
2023-05-22T02:54:35.922Z,3.40
2023-05-22T02:57:04.477Z,3.03
2023-05-22T02:59:32.891Z,3.28
2023-05-22T03:02:01.437Z,2.90
2023-05-22T03:04:30.516Z,2.70
2023-05-22T03:06:59.164Z,2.88
2023-05-22T03:09:27.315Z,3.30
2023-05-22T03:11:57.166Z,2.80
2023-05-22T03:14:25.373Z,2.92
2023-05-22T03:16:54.768Z,2.70
2023-05-22T03:19:24.977Z,2.50
2023-05-22T03:21:53.572Z,2.90
2023-05-22T03:24:21.836Z,2.85
2023-05-22T03:26:50.360Z,2.60
2023-05-22T03:29:20.081Z,2.47
2023-05-22T03:31:48.745Z,2.72
2023-05-22T03:34:17.079Z,2.70
2023-05-22T03:36:46.130Z,2.42
2023-05-22T03:39:14.298Z,2.53
2023-05-22T03:41:42.929Z,2.70
2023-05-22T03:44:11.143Z,2.63
2023-05-22T03:46:40.939Z,2.30
2023-05-22T03:49:09.070Z,2.60
2023-05-22T03:51:37.459Z,2.45
2023-05-22T03:54:06.094Z,2.63
2023-05-22T03:56:34.487Z,2.55
2023-05-22T03:59:02.594Z,2.28
2023-05-22T04:01:31.044Z,2.35
2023-05-22T04:04:00.938Z,2.55
2023-05-22T04:06:32.901Z,2.45
2023-05-22T04:09:02.260Z,2.30
2023-05-22T04:11:32.209Z,2.25
2023-05-22T04:14:04.656Z,2.40
2023-05-22T04:16:33.273Z,2.20
2023-05-22T04:19:03.432Z,2.45
2023-05-22T04:21:34.462Z,2.65
2023-05-22T04:24:07.344Z,2.50
2023-05-22T04:26:36.343Z,2.45
2023-05-22T04:29:04.576Z,2.22
2023-05-22T04:31:33.292Z,2.27
2023-05-22T04:34:02.962Z,2.60
2023-05-22T04:36:31.445Z,2.50
2023-05-22T04:39:00.458Z,2.17
2023-05-22T04:41:28.927Z,2.67
2023-05-22T04:43:57.040Z,2.47
2023-05-22T04:46:25.662Z,2.70
2023-05-22T04:48:53.955Z,2.80
2023-05-22T04:51:24.040Z,2.17
2023-05-22T04:53:52.279Z,3.15
2023-05-22T04:56:31.791Z,2.90
2023-05-22T04:59:04.847Z,2.53
2023-05-22T05:01:35.075Z,2.65
2023-05-22T05:04:04.255Z,2.72
2023-05-22T05:06:34.803Z,2.42
2023-05-22T05:09:03.010Z,2.55
2023-05-22T05:11:31.515Z,2.43
2023-05-22T05:13:59.685Z,2.80
2023-05-22T05:16:28.320Z,2.63
2023-05-22T05:18:56.653Z,3.10
2023-05-22T05:21:28.017Z,2.60
2023-05-22T05:23:57.658Z,3.40
2023-05-22T05:26:27.281Z,2.78
2023-05-22T05:28:56.744Z,2.75
2023-05-22T05:31:25.425Z,2.95
2023-05-22T05:33:54.819Z,2.63
2023-05-22T05:36:24.900Z,2.50
2023-05-22T05:38:53.055Z,2.75
2023-05-22T05:41:23.113Z,2.93
2023-05-22T05:43:52.295Z,2.88
2023-05-22T05:48:48.763Z,2.65
2023-05-22T05:51:17.152Z,2.90
2023-05-22T05:53:45.394Z,2.60
2023-05-22T05:56:13.885Z,2.37
2023-05-22T05:58:43.421Z,2.35
2023-05-22T06:01:12.769Z,2.83
2023-05-22T06:03:41.342Z,2.60
2023-05-22T06:06:10.735Z,2.60
2023-05-22T06:08:39.003Z,2.25
2023-05-22T06:11:07.473Z,2.10
2023-05-22T06:13:35.601Z,2.17
2023-05-22T06:16:06.895Z,2.60
2023-05-22T06:18:35.226Z,2.15
2023-05-22T06:21:03.674Z,2.53
2023-05-22T06:23:32.408Z,2.30
2023-05-22T06:26:01.191Z,2.33
2023-05-22T06:28:29.432Z,1.80
2023-05-22T06:30:59.231Z,2.08
2023-05-22T06:33:28.945Z,2.22
2023-05-22T06:35:57.497Z,2.40
2023-05-22T06:38:26.630Z,1.90
2023-05-22T06:43:23.009Z,2.35
2023-05-22T06:45:51.468Z,2.13
2023-05-22T06:48:19.897Z,2.20
2023-05-22T06:50:49.708Z,2.25
2023-05-22T06:53:17.927Z,1.92
2023-05-22T06:55:46.400Z,2.00
2023-05-22T06:58:14.584Z,2.45
2023-05-22T07:00:43.049Z,2.17
2023-05-22T07:03:12.068Z,2.03
2023-05-22T07:08:10.739Z,2.55
2023-05-22T07:10:39.442Z,2.30
2023-05-22T07:13:07.747Z,1.98
2023-05-22T07:15:36.274Z,1.90
2023-05-22T07:18:04.668Z,1.90
2023-05-22T07:20:33.322Z,1.58
2023-05-22T07:23:01.526Z,2.08
2023-05-22T07:25:31.575Z,1.65
2023-05-22T07:28:02.110Z,2.15
2023-05-22T07:30:31.456Z,2.40
2023-05-22T07:32:59.736Z,2.38
2023-05-22T07:35:28.246Z,1.85
2023-05-22T07:37:56.576Z,1.83
2023-05-22T07:40:26.560Z,2.17
2023-05-22T07:42:56.622Z,2.28
2023-05-22T07:45:26.583Z,2.00
2023-05-22T07:47:56.268Z,1.92
2023-05-22T07:50:26.792Z,2.08
2023-05-22T07:52:55.010Z,2.00
2023-05-22T07:55:23.547Z,1.88
2023-05-22T07:57:53.082Z,1.90
2023-05-22T08:00:23.543Z,2.10
2023-05-22T08:02:51.707Z,2.10
2023-05-22T08:05:20.599Z,2.05
2023-05-22T08:07:48.921Z,1.98
2023-05-22T08:10:18.818Z,1.73
2023-05-22T08:12:47.221Z,2.35
2023-05-22T08:15:16.220Z,1.67
2023-05-22T08:17:45.879Z,1.83
2023-05-22T08:20:14.687Z,1.50
2023-05-22T08:22:42.976Z,1.85
2023-05-22T08:25:11.511Z,1.58
2023-05-22T08:27:39.685Z,1.65
2023-05-22T08:30:09.726Z,1.55
2023-05-22T08:32:37.943Z,1.40
2023-05-22T08:35:08.866Z,1.60
2023-05-22T08:37:37.179Z,1.40
2023-05-22T08:40:07.284Z,1.40
2023-05-22T08:42:35.525Z,1.40
2023-05-22T08:45:04.441Z,1.30
2023-05-22T08:47:35.414Z,1.40
2023-05-22T08:50:04.692Z,1.60
2023-05-22T08:52:44.230Z,1.30
2023-05-22T08:55:12.940Z,1.55
2023-05-22T08:57:42.400Z,1.25
2023-05-22T09:00:11.649Z,1.30
2023-05-22T09:02:39.885Z,1.40
2023-05-22T09:05:09.726Z,1.25
2023-05-22T09:07:40.806Z,1.42
2023-05-22T09:10:09.760Z,1.30
2023-05-22T09:12:38.221Z,1.20
2023-05-22T09:19:06.545Z,1.25
2023-05-22T09:21:38.135Z,1.17
2023-05-22T09:24:09.312Z,1.35
2023-05-22T09:26:38.025Z,1.52
2023-05-22T09:29:07.385Z,1.10
2023-05-22T09:31:43.133Z,1.17
2023-05-22T09:34:14.344Z,1.20
2023-05-22T09:36:43.150Z,1.10
2023-05-22T09:39:12.739Z,1.27
2023-05-22T09:41:41.439Z,1.20
2023-05-22T09:44:17.407Z,1.30
2023-05-22T09:46:48.309Z,1.35
2023-05-22T09:49:17.485Z,1.13
2023-05-22T09:51:48.978Z,1.15
2023-05-22T09:54:21.730Z,1.23
2023-05-22T09:56:51.602Z,1.20
2023-05-22T09:59:22.591Z,1.50
2023-05-22T10:01:51.924Z,1.20
2023-05-22T10:04:22.967Z,1.27
2023-05-22T10:06:53.124Z,1.20
2023-05-22T10:09:30.787Z,1.05
2023-05-22T10:12:04.408Z,1.13
2023-05-22T10:14:33.188Z,1.00
2023-05-22T10:17:06.688Z,1.35
2023-05-22T10:19:39.683Z,1.60
2023-05-22T10:22:10.209Z,1.50
2023-05-22T10:24:41.303Z,1.30
2023-05-22T10:27:09.711Z,1.60
2023-05-22T10:29:46.342Z,1.40
2023-05-22T10:32:22.700Z,1.75
2023-05-22T10:34:59.135Z,1.40
2023-05-22T10:37:43.296Z,1.35
2023-05-22T10:40:16.206Z,1.55
2023-05-22T10:42:45.197Z,1.60
2023-05-22T10:45:13.396Z,1.40
2023-05-22T10:47:42.275Z,1.60
2023-05-22T10:50:12.072Z,1.20
2023-05-22T10:52:41.588Z,1.40
2023-05-22T10:57:40.761Z,1.23
2023-05-22T11:00:11.574Z,1.10
2023-05-22T11:02:42.466Z,1.45
2023-05-22T11:05:36.467Z,1.30
2023-05-22T11:08:39.318Z,1.45
2023-05-22T11:11:16.808Z,1.20
2023-05-22T11:13:52.967Z,1.63
2023-05-22T11:16:22.557Z,1.67
2023-05-22T11:18:51.069Z,1.77
2023-05-22T11:21:19.258Z,1.80
2023-05-22T11:23:48.639Z,2.03
2023-05-22T11:26:27.089Z,2.15
2023-05-22T11:29:00.856Z,1.83
2023-05-22T11:31:30.735Z,1.58
2023-05-22T11:33:59.435Z,1.77
2023-05-22T11:36:29.611Z,1.90
2023-05-22T11:39:00.116Z,1.92
2023-05-22T11:41:36.996Z,1.75
2023-05-22T11:44:09.788Z,1.38
2023-05-22T11:46:39.965Z,1.30
2023-05-22T11:49:10.398Z,1.40
2023-05-22T11:51:40.513Z,1.50
2023-05-22T11:54:09.043Z,1.88
2023-05-22T11:56:37.170Z,1.45
2023-05-22T11:59:07.441Z,1.60
2023-05-22T12:01:36.459Z,1.40
2023-05-22T12:04:06.223Z,1.10
2023-05-22T12:06:34.618Z,1.65
2023-05-22T12:09:03.768Z,1.30
2023-05-22T12:11:36.363Z,1.30
2023-05-22T12:14:06.343Z,1.13
2023-05-22T12:16:37.242Z,1.10
2023-05-22T12:19:12.335Z,1.35
2023-05-22T12:21:41.955Z,1.30
2023-05-22T12:24:12.562Z,1.58
2023-05-22T12:26:40.783Z,1.20
2023-05-22T12:29:10.598Z,1.98
2023-05-22T12:31:39.160Z,1.13
2023-05-22T12:34:08.924Z,1.40
2023-05-22T12:36:40.030Z,1.20
2023-05-22T12:39:10.538Z,1.13
2023-05-22T12:41:39.190Z,1.50
2023-05-22T12:44:07.718Z,1.20
2023-05-22T12:46:37.615Z,1.30
2023-05-22T12:49:06.436Z,1.25
2023-05-22T12:51:34.732Z,1.33
2023-05-22T12:54:03.872Z,1.45
2023-05-22T12:56:32.754Z,1.50
2023-05-22T13:01:29.505Z,1.73
2023-05-22T13:03:59.339Z,1.30
2023-05-22T13:06:30.223Z,1.48
2023-05-22T13:08:58.972Z,1.70
2023-05-22T13:11:27.317Z,1.25
2023-05-22T13:13:56.024Z,1.45
2023-05-22T13:16:24.228Z,1.30
2023-05-22T13:18:52.816Z,1.40
2023-05-22T13:21:24.058Z,1.20
2023-05-22T13:23:53.707Z,1.30
2023-05-22T13:26:22.848Z,1.30
2023-05-22T13:28:51.640Z,1.35
2023-05-22T13:31:20.006Z,1.20
2023-05-22T13:33:48.606Z,1.00
2023-05-22T13:36:16.770Z,1.20
2023-05-22T13:38:46.819Z,1.10
2023-05-22T13:41:17.793Z,1.10
2023-05-22T13:43:46.574Z,1.08
2023-05-22T13:46:14.791Z,1.27
2023-05-22T13:48:43.221Z,1.20
2023-05-22T13:51:11.367Z,1.20
2023-05-22T13:53:39.872Z,1.40
2023-05-22T13:56:09.435Z,1.38
2023-05-22T13:58:37.923Z,1.20
2023-05-22T14:01:06.148Z,1.40
2023-05-22T14:03:35.089Z,1.40
2023-05-22T14:06:03.302Z,1.40
2023-05-22T14:08:31.810Z,1.30
2023-05-22T14:10:59.975Z,1.20
2023-05-22T14:13:29.942Z,1.25
2023-05-22T14:15:58.201Z,1.17
2023-05-22T14:18:26.670Z,1.20
2023-05-22T14:20:54.945Z,1.15
2023-05-22T14:23:23.650Z,1.10
2023-05-22T14:25:52.150Z,1.20
2023-05-22T14:28:20.561Z,1.23
2023-05-22T14:30:53.071Z,1.20
2023-05-22T14:33:21.582Z,1.05
2023-05-22T14:35:51.676Z,1.15
2023-05-22T14:38:20.167Z,1.30
2023-05-22T14:40:48.398Z,0.95
2023-05-22T14:43:16.871Z,1.35
2023-05-22T14:45:45.099Z,1.48
2023-05-22T14:48:15.077Z,1.20
2023-05-22T14:50:43.295Z,1.17
2023-05-22T14:53:11.825Z,1.10
2023-05-22T14:55:40.072Z,1.23
2023-05-22T14:58:08.759Z,1.30
2023-05-22T15:00:37.216Z,1.40
2023-05-22T15:03:05.637Z,1.48
2023-05-22T15:05:35.308Z,1.05
2023-05-22T15:08:04.098Z,1.08
2023-05-22T15:10:32.241Z,1.10
2023-05-22T15:13:00.701Z,1.27
2023-05-22T15:15:28.896Z,1.40
2023-05-22T15:18:00.450Z,1.95
2023-05-22T15:20:28.751Z,1.13
2023-05-22T15:22:58.719Z,1.20
2023-05-22T15:25:27.215Z,1.02
2023-05-22T15:27:55.649Z,1.30
2023-05-22T15:30:24.124Z,1.35
2023-05-22T15:32:52.660Z,1.23
2023-05-22T15:35:21.049Z,1.55
2023-05-22T15:37:49.488Z,1.50
2023-05-22T15:40:22.746Z,1.38
2023-05-22T15:42:52.700Z,1.17
2023-05-22T15:45:21.418Z,1.20
2023-05-22T15:47:50.134Z,1.90
2023-05-22T15:50:18.474Z,1.13
2023-05-22T15:52:47.018Z,1.13
2023-05-22T15:55:15.234Z,1.30
2023-05-22T15:57:45.065Z,1.27
2023-05-22T16:00:14.908Z,1.00
2023-05-22T16:02:44.115Z,1.10
2023-05-22T16:05:12.491Z,1.13
2023-05-22T16:07:40.918Z,1.10
2023-05-22T16:10:10.104Z,1.40
2023-05-22T16:12:41.008Z,1.60
2023-05-22T16:15:11.845Z,1.70
2023-05-22T16:17:40.667Z,2.00
2023-05-22T16:20:10.112Z,1.45
2023-05-22T16:22:47.914Z,1.10
2023-05-22T16:25:18.061Z,1.17
2023-05-22T16:27:48.957Z,1.38
2023-05-22T16:30:19.045Z,2.38
2023-05-22T16:32:49.565Z,1.50
2023-05-22T16:35:19.585Z,1.20
2023-05-22T16:37:48.499Z,1.42
2023-05-22T16:40:17.575Z,1.30
2023-05-22T16:42:46.012Z,1.45
2023-05-22T16:45:14.249Z,1.90
2023-05-22T16:47:44.123Z,1.67
2023-05-22T16:50:12.504Z,1.02
2023-05-22T16:52:43.740Z,1.13
2023-05-22T16:55:11.912Z,1.17
2023-05-22T16:57:41.022Z,0.95
2023-05-22T17:00:11.009Z,1.20
2023-05-22T17:02:39.789Z,1.38
2023-05-22T17:05:10.252Z,1.33
2023-05-22T17:07:38.691Z,1.15
2023-05-22T17:10:07.855Z,1.67
2023-05-22T17:12:36.355Z,1.30
2023-05-22T17:15:05.930Z,1.33
2023-05-22T17:17:34.386Z,1.25
2023-05-22T17:20:04.461Z,1.55
2023-05-22T17:22:36.090Z,1.58
2023-05-22T17:25:04.917Z,1.25
2023-05-22T17:30:06.418Z,1.40
2023-05-22T17:32:35.266Z,1.33
2023-05-22T17:35:04.974Z,1.30
2023-05-22T17:37:34.839Z,1.50
2023-05-22T17:40:05.939Z,1.55
2023-05-22T17:42:34.853Z,1.70
2023-05-22T17:45:08.670Z,1.60
2023-05-22T17:47:37.157Z,1.73
2023-05-22T17:50:06.241Z,1.60
2023-05-22T17:52:37.285Z,1.92
2023-05-22T17:55:06.755Z,2.03
2023-05-22T17:57:35.201Z,2.10
2023-05-22T18:00:05.848Z,2.08
2023-05-22T18:02:34.489Z,2.00
2023-05-22T18:05:02.695Z,1.90
2023-05-22T18:07:31.082Z,2.23
2023-05-22T18:10:00.622Z,1.50
2023-05-22T18:12:31.991Z,1.52
2023-05-22T18:15:00.606Z,2.13
2023-05-22T18:17:29.116Z,2.25
2023-05-22T18:19:57.424Z,1.90
2023-05-22T18:22:26.796Z,2.28
2023-05-22T18:24:54.924Z,2.08
2023-05-22T18:27:24.737Z,2.33
2023-05-22T18:29:53.013Z,2.58
2023-05-22T18:32:21.417Z,2.03
2023-05-22T18:34:49.624Z,2.13
2023-05-22T18:37:19.017Z,2.03
2023-05-22T18:39:47.935Z,1.98
2023-05-22T18:42:16.384Z,2.55
2023-05-22T18:44:48.182Z,2.25
2023-05-22T18:47:17.979Z,2.47
2023-05-22T18:49:46.192Z,2.75
2023-05-22T18:52:14.724Z,2.05
2023-05-22T18:54:43.444Z,2.38
2023-05-22T18:57:12.006Z,2.72
2023-05-22T18:59:41.359Z,2.17
2023-05-22T19:02:11.716Z,2.80
2023-05-22T19:04:40.798Z,2.60
2023-05-22T19:07:09.398Z,3.47
2023-05-22T19:09:38.236Z,2.85
2023-05-22T19:12:10.879Z,3.17
2023-05-22T19:14:39.039Z,2.70
2023-05-22T19:17:07.661Z,2.93
2023-05-22T19:19:37.351Z,2.73
2023-05-22T19:22:19.891Z,2.83
2023-05-22T19:24:48.179Z,3.40
2023-05-22T19:27:16.626Z,3.10
2023-05-22T19:29:45.460Z,2.53
2023-05-22T19:32:14.427Z,2.40
2023-05-22T19:34:43.948Z,3.85
2023-05-22T19:37:12.409Z,2.90
2023-05-22T19:39:40.642Z,3.10
2023-05-22T19:42:10.773Z,2.90
2023-05-22T19:47:08.159Z,2.28
2023-05-22T19:49:37.157Z,2.25
2023-05-22T19:54:35.797Z,2.83
2023-05-22T19:57:04.454Z,2.95
2023-05-22T19:59:35.833Z,3.15
2023-05-22T20:02:05.233Z,2.72
2023-05-22T20:04:34.414Z,2.63
2023-05-22T20:07:05.218Z,3.00
2023-05-22T20:09:34.702Z,2.78
2023-05-22T20:12:03.289Z,2.67
2023-05-22T20:14:31.542Z,3.08
2023-05-22T20:17:00.103Z,3.00
2023-05-22T20:19:28.604Z,2.75
2023-05-22T20:21:58.252Z,3.45
2023-05-22T20:24:26.984Z,3.78
2023-05-22T20:26:56.960Z,3.15
2023-05-22T20:29:25.573Z,3.15
2023-05-22T20:34:23.514Z,3.30
2023-05-22T20:36:53.064Z,3.47
2023-05-22T20:39:22.233Z,3.85
2023-05-22T20:44:23.628Z,3.33
2023-05-22T20:46:53.331Z,4.13
2023-05-22T20:49:21.804Z,3.88
2023-05-22T20:51:51.511Z,4.03
2023-05-22T20:56:48.100Z,3.70
2023-05-22T20:59:16.262Z,3.65
2023-05-22T21:01:46.153Z,4.45
2023-05-22T21:04:14.252Z,4.18
2023-05-22T21:06:42.670Z,4.00
2023-05-22T21:09:10.855Z,3.92
2023-05-22T21:11:39.258Z,4.90
2023-05-22T21:14:07.357Z,4.57
2023-05-22T21:16:39.133Z,4.13
2023-05-22T21:19:09.091Z,4.10
2023-05-22T21:21:41.587Z,4.47
2023-05-22T21:24:10.152Z,4.60
2023-05-22T21:26:38.775Z,4.03
2023-05-22T21:29:07.081Z,3.50
2023-05-22T21:31:35.981Z,4.20
2023-05-22T21:34:05.579Z,3.92
2023-05-22T21:36:36.391Z,4.68
2023-05-22T21:39:04.849Z,3.97
2023-05-22T21:41:33.303Z,4.50
2023-05-22T21:44:01.425Z,4.47
2023-05-22T21:46:29.867Z,4.35
2023-05-22T21:48:57.983Z,4.13
2023-05-22T21:51:26.431Z,4.68
2023-05-22T21:53:55.955Z,4.82
2023-05-22T21:56:24.385Z,4.13
2023-05-22T21:58:52.491Z,3.95
2023-05-22T22:01:20.817Z,4.00
2023-05-22T22:03:49.293Z,4.00
2023-05-22T22:06:17.553Z,4.43
2023-05-22T22:08:45.968Z,3.13
2023-05-22T22:11:15.497Z,4.43
2023-05-22T22:13:43.979Z,4.40
2023-05-22T22:16:12.380Z,3.80
2023-05-22T22:18:40.934Z,4.28
2023-05-22T22:21:09.075Z,4.32
2023-05-22T22:23:37.561Z,3.95
2023-05-22T22:26:05.673Z,4.20
2023-05-22T22:28:35.602Z,5.22
2023-05-22T22:31:03.822Z,4.47
2023-05-22T22:33:32.819Z,4.90
2023-05-22T22:36:01.089Z,4.38
2023-05-22T22:38:32.757Z,4.40
2023-05-22T22:41:01.658Z,4.22
2023-05-22T22:43:30.051Z,4.50
2023-05-22T22:45:59.589Z,4.70
2023-05-22T22:48:28.819Z,4.78
2023-05-22T22:50:57.932Z,4.15
2023-05-22T22:53:26.339Z,4.30
2023-05-22T22:55:56.756Z,4.88
2023-05-22T22:58:25.336Z,4.40
2023-05-22T23:00:54.632Z,4.10
2023-05-22T23:03:24.492Z,3.88
2023-05-22T23:05:52.635Z,4.28
2023-05-22T23:08:21.044Z,3.67
2023-05-22T23:10:49.217Z,4.28
2023-05-22T23:13:17.633Z,4.30
2023-05-22T23:15:45.813Z,4.70
2023-05-22T23:18:14.354Z,3.63
2023-05-22T23:20:45.068Z,4.10
2023-05-22T23:23:13.532Z,4.65
2023-05-22T23:25:42.018Z,4.38
2023-05-22T23:28:10.541Z,3.67
2023-05-22T23:30:38.668Z,4.10
2023-05-22T23:33:07.723Z,4.65
2023-05-22T23:35:36.012Z,4.28
2023-05-22T23:38:05.815Z,4.13
2023-05-22T23:43:02.455Z,3.90
2023-05-22T23:45:30.849Z,3.88
2023-05-22T23:47:59.398Z,3.67
2023-05-22T23:50:27.556Z,4.63
2023-05-22T23:52:55.972Z,4.30
2023-05-22T23:55:25.529Z,4.55
2023-05-22T23:57:53.942Z,4.35
